sensor_id;sensor_type;location;lat;lon;timestamp;temperature;humidity
55091;DHT22;40985;53.180;5.800;2022-08-21T00:00:41;14.80;99.90
55091;DHT22;40985;53.180;5.800;2022-08-21T00:03:09;14.80;99.90
55091;DHT22;40985;53.180;5.800;2022-08-21T00:05:41;14.80;99.90
55091;DHT22;40985;53.180;5.800;2022-08-21T00:08:07;14.80;99.90
55091;DHT22;40985;53.180;5.800;2022-08-21T00:10:33;14.80;99.90
55091;DHT22;40985;53.180;5.800;2022-08-21T00:13:01;14.80;99.90
55091;DHT22;40985;53.180;5.800;2022-08-21T00:15:29;14.70;99.90
55091;DHT22;40985;53.180;5.800;2022-08-21T00:17:56;14.80;99.90
55091;DHT22;40985;53.180;5.800;2022-08-21T00:20:22;14.70;99.90
55091;DHT22;40985;53.180;5.800;2022-08-21T00:22:49;14.70;99.90
55091;DHT22;40985;53.180;5.800;2022-08-21T00:25:16;14.60;99.90
55091;DHT22;40985;53.180;5.800;2022-08-21T00:27:42;14.60;99.90
55091;DHT22;40985;53.180;5.800;2022-08-21T00:30:10;14.60;99.90
55091;DHT22;40985;53.180;5.800;2022-08-21T00:32:38;14.50;99.90
55091;DHT22;40985;53.180;5.800;2022-08-21T00:35:10;14.40;99.90
55091;DHT22;40985;53.180;5.800;2022-08-21T00:37:40;14.30;99.90
55091;DHT22;40985;53.180;5.800;2022-08-21T00:40:09;14.30;99.90
55091;DHT22;40985;53.180;5.800;2022-08-21T00:42:35;14.20;99.90
55091;DHT22;40985;53.180;5.800;2022-08-21T00:45:01;14.20;99.90
55091;DHT22;40985;53.180;5.800;2022-08-21T00:47:27;14.20;99.90
55091;DHT22;40985;53.180;5.800;2022-08-21T00:49:53;14.10;99.90
55091;DHT22;40985;53.180;5.800;2022-08-21T00:52:22;14.10;99.90
55091;DHT22;40985;53.180;5.800;2022-08-21T00:54:50;14.00;99.90
55091;DHT22;40985;53.180;5.800;2022-08-21T00:57:20;13.90;99.90
55091;DHT22;40985;53.180;5.800;2022-08-21T00:59:49;13.90;99.90
55091;DHT22;40985;53.180;5.800;2022-08-21T01:02:16;13.80;99.90
55091;DHT22;40985;53.180;5.800;2022-08-21T01:04:42;13.80;99.90
55091;DHT22;40985;53.180;5.800;2022-08-21T01:07:09;13.80;99.90
55091;DHT22;40985;53.180;5.800;2022-08-21T01:09:36;13.80;99.90
55091;DHT22;40985;53.180;5.800;2022-08-21T01:12:02;13.70;99.90
55091;DHT22;40985;53.180;5.800;2022-08-21T01:14:28;13.70;99.90
55091;DHT22;40985;53.180;5.800;2022-08-21T01:16:56;13.70;99.90
55091;DHT22;40985;53.180;5.800;2022-08-21T01:19:24;13.70;99.90
55091;DHT22;40985;53.180;5.800;2022-08-21T01:21:50;13.70;99.90
55091;DHT22;40985;53.180;5.800;2022-08-21T01:24:16;13.70;99.90
55091;DHT22;40985;53.180;5.800;2022-08-21T01:26:43;13.70;99.90
55091;DHT22;40985;53.180;5.800;2022-08-21T01:32:15;13.70;99.90
55091;DHT22;40985;53.180;5.800;2022-08-21T01:34:44;13.70;99.90
55091;DHT22;40985;53.180;5.800;2022-08-21T01:37:11;13.60;99.90
55091;DHT22;40985;53.180;5.800;2022-08-21T01:39:37;13.60;99.90
55091;DHT22;40985;53.180;5.800;2022-08-21T01:42:04;13.70;99.90
55091;DHT22;40985;53.180;5.800;2022-08-21T01:44:30;13.60;99.90
55091;DHT22;40985;53.180;5.800;2022-08-21T01:46:58;13.60;99.90
55091;DHT22;40985;53.180;5.800;2022-08-21T01:49:24;13.60;99.90
55091;DHT22;40985;53.180;5.800;2022-08-21T01:51:50;13.60;99.90
55091;DHT22;40985;53.180;5.800;2022-08-21T01:54:15;13.60;99.90
55091;DHT22;40985;53.180;5.800;2022-08-21T01:56:43;13.50;99.90
55091;DHT22;40985;53.180;5.800;2022-08-21T01:59:11;13.60;99.90
55091;DHT22;40985;53.180;5.800;2022-08-21T02:01:37;13.50;99.90
55091;DHT22;40985;53.180;5.800;2022-08-21T02:04:05;13.50;99.90
55091;DHT22;40985;53.180;5.800;2022-08-21T02:06:31;13.60;99.90
55091;DHT22;40985;53.180;5.800;2022-08-21T02:08:57;13.50;99.90
55091;DHT22;40985;53.180;5.800;2022-08-21T02:11:23;13.60;99.90
55091;DHT22;40985;53.180;5.800;2022-08-21T02:13:49;13.60;99.90
55091;DHT22;40985;53.180;5.800;2022-08-21T02:16:15;13.60;99.90
55091;DHT22;40985;53.180;5.800;2022-08-21T02:18:41;13.50;99.90
55091;DHT22;40985;53.180;5.800;2022-08-21T02:21:07;13.50;99.90
55091;DHT22;40985;53.180;5.800;2022-08-21T02:23:33;13.50;99.90
55091;DHT22;40985;53.180;5.800;2022-08-21T02:26:04;13.50;99.90
55091;DHT22;40985;53.180;5.800;2022-08-21T02:28:32;13.40;99.90
55091;DHT22;40985;53.180;5.800;2022-08-21T02:30:58;13.40;99.90
55091;DHT22;40985;53.180;5.800;2022-08-21T02:33:25;13.40;99.90
55091;DHT22;40985;53.180;5.800;2022-08-21T02:35:51;13.40;99.90
55091;DHT22;40985;53.180;5.800;2022-08-21T02:38:21;13.40;99.90
55091;DHT22;40985;53.180;5.800;2022-08-21T02:40:49;13.40;99.90
55091;DHT22;40985;53.180;5.800;2022-08-21T02:43:15;13.40;99.90
55091;DHT22;40985;53.180;5.800;2022-08-21T02:45:43;13.50;99.90
55091;DHT22;40985;53.180;5.800;2022-08-21T02:48:11;13.50;99.90
55091;DHT22;40985;53.180;5.800;2022-08-21T02:50:40;13.40;99.90
55091;DHT22;40985;53.180;5.800;2022-08-21T02:53:08;13.50;99.90
55091;DHT22;40985;53.180;5.800;2022-08-21T02:55:37;13.50;99.90
55091;DHT22;40985;53.180;5.800;2022-08-21T02:58:05;13.50;99.90
55091;DHT22;40985;53.180;5.800;2022-08-21T03:00:32;13.50;99.90
55091;DHT22;40985;53.180;5.800;2022-08-21T03:02:58;13.40;99.90
55091;DHT22;40985;53.180;5.800;2022-08-21T03:05:26;13.50;99.90
55091;DHT22;40985;53.180;5.800;2022-08-21T03:07:53;13.50;99.90
55091;DHT22;40985;53.180;5.800;2022-08-21T03:10:20;13.50;99.90
55091;DHT22;40985;53.180;5.800;2022-08-21T03:12:47;13.50;99.90
55091;DHT22;40985;53.180;5.800;2022-08-21T03:15:15;13.50;99.90
55091;DHT22;40985;53.180;5.800;2022-08-21T03:17:42;13.50;99.90
55091;DHT22;40985;53.180;5.800;2022-08-21T03:20:09;13.50;99.90
55091;DHT22;40985;53.180;5.800;2022-08-21T03:22:35;13.60;99.90
55091;DHT22;40985;53.180;5.800;2022-08-21T03:25:00;13.60;99.90
55091;DHT22;40985;53.180;5.800;2022-08-21T03:27:27;13.60;99.90
55091;DHT22;40985;53.180;5.800;2022-08-21T03:29:54;13.60;99.90
55091;DHT22;40985;53.180;5.800;2022-08-21T03:32:20;13.60;99.90
55091;DHT22;40985;53.180;5.800;2022-08-21T03:34:47;13.60;99.90
55091;DHT22;40985;53.180;5.800;2022-08-21T03:37:14;13.70;99.90
55091;DHT22;40985;53.180;5.800;2022-08-21T03:39:40;13.60;99.90
55091;DHT22;40985;53.180;5.800;2022-08-21T03:42:07;13.60;99.90
55091;DHT22;40985;53.180;5.800;2022-08-21T03:44:33;13.60;99.90
55091;DHT22;40985;53.180;5.800;2022-08-21T03:47:01;13.60;99.90
55091;DHT22;40985;53.180;5.800;2022-08-21T03:49:27;13.70;99.90
55091;DHT22;40985;53.180;5.800;2022-08-21T03:51:53;13.60;99.90
55091;DHT22;40985;53.180;5.800;2022-08-21T03:54:19;13.60;99.90
55091;DHT22;40985;53.180;5.800;2022-08-21T03:56:45;13.60;99.90
55091;DHT22;40985;53.180;5.800;2022-08-21T03:59:11;13.70;99.90
55091;DHT22;40985;53.180;5.800;2022-08-21T04:01:37;13.70;99.90
55091;DHT22;40985;53.180;5.800;2022-08-21T04:04:04;13.60;99.90
55091;DHT22;40985;53.180;5.800;2022-08-21T04:06:30;13.60;99.90
55091;DHT22;40985;53.180;5.800;2022-08-21T04:08:56;13.60;99.90
55091;DHT22;40985;53.180;5.800;2022-08-21T04:11:22;13.70;99.90
55091;DHT22;40985;53.180;5.800;2022-08-21T04:13:48;13.60;99.90
55091;DHT22;40985;53.180;5.800;2022-08-21T04:16:13;13.60;99.90
55091;DHT22;40985;53.180;5.800;2022-08-21T04:18:40;13.60;99.90
55091;DHT22;40985;53.180;5.800;2022-08-21T04:21:06;13.60;99.90
55091;DHT22;40985;53.180;5.800;2022-08-21T04:23:33;13.60;99.90
55091;DHT22;40985;53.180;5.800;2022-08-21T04:25:59;13.60;99.90
55091;DHT22;40985;53.180;5.800;2022-08-21T04:28:26;13.60;99.90
55091;DHT22;40985;53.180;5.800;2022-08-21T04:30:53;13.60;99.90
55091;DHT22;40985;53.180;5.800;2022-08-21T04:33:20;13.60;99.90
55091;DHT22;40985;53.180;5.800;2022-08-21T04:35:46;13.60;99.90
55091;DHT22;40985;53.180;5.800;2022-08-21T04:38:12;13.60;99.90
55091;DHT22;40985;53.180;5.800;2022-08-21T04:40:37;13.70;99.90
55091;DHT22;40985;53.180;5.800;2022-08-21T04:43:08;13.60;99.90
55091;DHT22;40985;53.180;5.800;2022-08-21T04:45:38;13.60;99.90
55091;DHT22;40985;53.180;5.800;2022-08-21T04:48:05;13.60;99.90
55091;DHT22;40985;53.180;5.800;2022-08-21T04:50:42;13.60;99.90
55091;DHT22;40985;53.180;5.800;2022-08-21T04:53:22;13.50;99.90
55091;DHT22;40985;53.180;5.800;2022-08-21T04:55:48;13.60;99.90
55091;DHT22;40985;53.180;5.800;2022-08-21T04:58:17;13.60;99.90
55091;DHT22;40985;53.180;5.800;2022-08-21T05:00:44;13.50;99.90
55091;DHT22;40985;53.180;5.800;2022-08-21T05:03:11;13.50;99.90
55091;DHT22;40985;53.180;5.800;2022-08-21T05:05:38;13.60;99.90
55091;DHT22;40985;53.180;5.800;2022-08-21T05:08:07;13.60;99.90
55091;DHT22;40985;53.180;5.800;2022-08-21T05:10:34;13.60;99.90
55091;DHT22;40985;53.180;5.800;2022-08-21T05:13:01;13.60;99.90
55091;DHT22;40985;53.180;5.800;2022-08-21T05:15:27;13.60;99.90
55091;DHT22;40985;53.180;5.800;2022-08-21T05:17:52;13.60;99.90
55091;DHT22;40985;53.180;5.800;2022-08-21T05:20:18;13.70;99.90
55091;DHT22;40985;53.180;5.800;2022-08-21T05:22:45;13.70;99.90
55091;DHT22;40985;53.180;5.800;2022-08-21T05:25:11;13.70;99.90
55091;DHT22;40985;53.180;5.800;2022-08-21T05:27:38;13.80;99.90
55091;DHT22;40985;53.180;5.800;2022-08-21T05:30:08;13.80;99.90
55091;DHT22;40985;53.180;5.800;2022-08-21T05:32:35;13.90;99.90
55091;DHT22;40985;53.180;5.800;2022-08-21T05:35:02;13.90;99.90
55091;DHT22;40985;53.180;5.800;2022-08-21T05:37:27;13.90;99.90
55091;DHT22;40985;53.180;5.800;2022-08-21T05:39:53;14.00;99.90
55091;DHT22;40985;53.180;5.800;2022-08-21T05:42:19;14.10;99.90
55091;DHT22;40985;53.180;5.800;2022-08-21T05:44:44;14.10;99.90
55091;DHT22;40985;53.180;5.800;2022-08-21T05:47:10;14.20;99.90
55091;DHT22;40985;53.180;5.800;2022-08-21T05:49:37;14.20;99.90
55091;DHT22;40985;53.180;5.800;2022-08-21T05:52:03;14.30;99.90
55091;DHT22;40985;53.180;5.800;2022-08-21T05:54:30;14.30;99.90
55091;DHT22;40985;53.180;5.800;2022-08-21T05:56:56;14.40;99.90
55091;DHT22;40985;53.180;5.800;2022-08-21T05:59:22;14.50;99.90
55091;DHT22;40985;53.180;5.800;2022-08-21T06:01:48;14.60;99.90
55091;DHT22;40985;53.180;5.800;2022-08-21T06:04:15;14.70;99.90
55091;DHT22;40985;53.180;5.800;2022-08-21T06:06:41;14.80;99.90
55091;DHT22;40985;53.180;5.800;2022-08-21T06:09:07;14.80;99.90
55091;DHT22;40985;53.180;5.800;2022-08-21T06:11:33;14.80;99.90
55091;DHT22;40985;53.180;5.800;2022-08-21T06:13:59;14.90;99.90
55091;DHT22;40985;53.180;5.800;2022-08-21T06:16:25;15.00;99.90
55091;DHT22;40985;53.180;5.800;2022-08-21T06:18:52;15.10;99.90
55091;DHT22;40985;53.180;5.800;2022-08-21T06:21:18;15.20;99.90
55091;DHT22;40985;53.180;5.800;2022-08-21T06:23:44;15.30;99.90
55091;DHT22;40985;53.180;5.800;2022-08-21T06:26:12;15.40;99.90
55091;DHT22;40985;53.180;5.800;2022-08-21T06:28:38;15.40;99.90
55091;DHT22;40985;53.180;5.800;2022-08-21T06:31:16;15.50;99.90
55091;DHT22;40985;53.180;5.800;2022-08-21T06:33:42;15.60;99.90
55091;DHT22;40985;53.180;5.800;2022-08-21T06:36:08;15.70;99.90
55091;DHT22;40985;53.180;5.800;2022-08-21T06:38:35;15.80;99.90
55091;DHT22;40985;53.180;5.800;2022-08-21T06:41:00;15.90;99.90
55091;DHT22;40985;53.180;5.800;2022-08-21T06:43:26;16.00;99.90
55091;DHT22;40985;53.180;5.800;2022-08-21T06:45:52;16.10;99.90
55091;DHT22;40985;53.180;5.800;2022-08-21T06:48:18;16.10;99.90
55091;DHT22;40985;53.180;5.800;2022-08-21T06:50:44;16.20;99.90
55091;DHT22;40985;53.180;5.800;2022-08-21T06:53:12;16.30;99.90
55091;DHT22;40985;53.180;5.800;2022-08-21T06:55:40;16.40;99.90
55091;DHT22;40985;53.180;5.800;2022-08-21T06:58:05;16.50;99.90
55091;DHT22;40985;53.180;5.800;2022-08-21T07:00:32;16.50;99.90
55091;DHT22;40985;53.180;5.800;2022-08-21T07:02:58;16.60;99.90
55091;DHT22;40985;53.180;5.800;2022-08-21T07:05:30;16.60;99.90
55091;DHT22;40985;53.180;5.800;2022-08-21T07:07:56;16.70;99.90
55091;DHT22;40985;53.180;5.800;2022-08-21T07:10:24;16.80;99.90
55091;DHT22;40985;53.180;5.800;2022-08-21T07:12:50;16.90;99.90
55091;DHT22;40985;53.180;5.800;2022-08-21T07:15:16;17.00;99.90
55091;DHT22;40985;53.180;5.800;2022-08-21T07:17:42;17.20;99.90
55091;DHT22;40985;53.180;5.800;2022-08-21T07:20:08;17.30;99.90
55091;DHT22;40985;53.180;5.800;2022-08-21T07:22:35;17.40;99.90
55091;DHT22;40985;53.180;5.800;2022-08-21T07:25:02;17.40;99.90
55091;DHT22;40985;53.180;5.800;2022-08-21T07:27:28;17.40;99.90
55091;DHT22;40985;53.180;5.800;2022-08-21T07:29:54;17.50;99.90
55091;DHT22;40985;53.180;5.800;2022-08-21T07:32:20;17.50;99.90
55091;DHT22;40985;53.180;5.800;2022-08-21T07:34:45;17.60;99.90
55091;DHT22;40985;53.180;5.800;2022-08-21T07:37:11;17.60;99.90
55091;DHT22;40985;53.180;5.800;2022-08-21T07:39:37;17.80;99.90
55091;DHT22;40985;53.180;5.800;2022-08-21T07:42:04;17.90;99.90
55091;DHT22;40985;53.180;5.800;2022-08-21T07:44:29;18.00;99.90
55091;DHT22;40985;53.180;5.800;2022-08-21T07:46:55;18.10;99.90
55091;DHT22;40985;53.180;5.800;2022-08-21T07:49:21;18.30;99.90
55091;DHT22;40985;53.180;5.800;2022-08-21T07:51:46;18.30;99.90
55091;DHT22;40985;53.180;5.800;2022-08-21T07:54:12;18.50;99.90
55091;DHT22;40985;53.180;5.800;2022-08-21T07:56:38;18.60;99.90
55091;DHT22;40985;53.180;5.800;2022-08-21T07:59:03;18.70;99.90
55091;DHT22;40985;53.180;5.800;2022-08-21T08:01:29;18.70;99.90
55091;DHT22;40985;53.180;5.800;2022-08-21T08:03:55;18.80;99.90
55091;DHT22;40985;53.180;5.800;2022-08-21T08:06:21;18.90;99.90
55091;DHT22;40985;53.180;5.800;2022-08-21T08:08:48;19.00;99.90
55091;DHT22;40985;53.180;5.800;2022-08-21T08:11:14;19.00;99.90
55091;DHT22;40985;53.180;5.800;2022-08-21T08:13:45;19.10;99.90
55091;DHT22;40985;53.180;5.800;2022-08-21T08:16:12;19.20;99.90
55091;DHT22;40985;53.180;5.800;2022-08-21T08:18:38;19.20;99.90
55091;DHT22;40985;53.180;5.800;2022-08-21T08:21:04;19.20;99.90
55091;DHT22;40985;53.180;5.800;2022-08-21T08:23:30;19.30;99.90
55091;DHT22;40985;53.180;5.800;2022-08-21T08:25:57;19.30;99.90
55091;DHT22;40985;53.180;5.800;2022-08-21T08:28:23;19.30;99.90
55091;DHT22;40985;53.180;5.800;2022-08-21T08:30:49;19.30;99.90
55091;DHT22;40985;53.180;5.800;2022-08-21T08:33:15;19.30;99.90
55091;DHT22;40985;53.180;5.800;2022-08-21T08:35:44;19.40;99.90
55091;DHT22;40985;53.180;5.800;2022-08-21T08:38:11;19.40;99.90
55091;DHT22;40985;53.180;5.800;2022-08-21T08:40:43;19.60;99.90
55091;DHT22;40985;53.180;5.800;2022-08-21T08:43:11;19.70;99.90
55091;DHT22;40985;53.180;5.800;2022-08-21T08:45:39;19.70;99.90
55091;DHT22;40985;53.180;5.800;2022-08-21T08:48:08;19.90;99.90
55091;DHT22;40985;53.180;5.800;2022-08-21T08:50:52;20.10;99.90
55091;DHT22;40985;53.180;5.800;2022-08-21T08:53:32;20.20;99.90
55091;DHT22;40985;53.180;5.800;2022-08-21T08:56:00;20.10;99.90
55091;DHT22;40985;53.180;5.800;2022-08-21T08:58:47;20.00;99.90
55091;DHT22;40985;53.180;5.800;2022-08-21T09:01:18;20.20;99.90
55091;DHT22;40985;53.180;5.800;2022-08-21T09:03:46;20.40;99.90
55091;DHT22;40985;53.180;5.800;2022-08-21T09:12:31;20.40;99.90
55091;DHT22;40985;53.180;5.800;2022-08-21T09:26:19;21.30;99.90
55091;DHT22;40985;53.180;5.800;2022-08-21T09:28:46;21.50;99.90
55091;DHT22;40985;53.180;5.800;2022-08-21T09:31:33;21.70;99.90
55091;DHT22;40985;53.180;5.800;2022-08-21T09:34:02;21.40;99.90
55091;DHT22;40985;53.180;5.800;2022-08-21T09:36:41;21.20;99.90
55091;DHT22;40985;53.180;5.800;2022-08-21T09:39:10;20.90;99.90
55091;DHT22;40985;53.180;5.800;2022-08-21T09:41:37;20.80;99.90
55091;DHT22;40985;53.180;5.800;2022-08-21T09:44:05;20.70;99.90
55091;DHT22;40985;53.180;5.800;2022-08-21T09:46:32;20.60;99.90
55091;DHT22;40985;53.180;5.800;2022-08-21T09:49:00;20.80;99.90
55091;DHT22;40985;53.180;5.800;2022-08-21T09:51:32;20.90;99.90
55091;DHT22;40985;53.180;5.800;2022-08-21T09:56:36;20.90;99.90
55091;DHT22;40985;53.180;5.800;2022-08-21T10:01:53;21.30;99.90
55091;DHT22;40985;53.180;5.800;2022-08-21T10:04:22;21.50;99.90
55091;DHT22;40985;53.180;5.800;2022-08-21T10:06:48;21.10;99.90
55091;DHT22;40985;53.180;5.800;2022-08-21T10:09:18;21.10;99.90
55091;DHT22;40985;53.180;5.800;2022-08-21T10:17:36;20.80;99.90
55091;DHT22;40985;53.180;5.800;2022-08-21T10:23:07;20.50;99.90
55091;DHT22;40985;53.180;5.800;2022-08-21T10:25:42;20.50;99.90
55091;DHT22;40985;53.180;5.800;2022-08-21T10:34:13;20.70;99.90
55091;DHT22;40985;53.180;5.800;2022-08-21T10:37:15;20.80;99.90
55091;DHT22;40985;53.180;5.800;2022-08-21T10:42:28;21.10;99.90
55091;DHT22;40985;53.180;5.800;2022-08-21T10:47:53;21.50;99.90
55091;DHT22;40985;53.180;5.800;2022-08-21T10:50:35;21.70;99.90
55091;DHT22;40985;53.180;5.800;2022-08-21T10:53:32;21.60;99.90
55091;DHT22;40985;53.180;5.800;2022-08-21T11:01:44;21.30;99.90
55091;DHT22;40985;53.180;5.800;2022-08-21T11:04:20;21.50;99.90
55091;DHT22;40985;53.180;5.800;2022-08-21T11:07:07;21.70;99.90
55091;DHT22;40985;53.180;5.800;2022-08-21T11:09:36;21.70;99.90
55091;DHT22;40985;53.180;5.800;2022-08-21T11:12:12;21.80;99.90
55091;DHT22;40985;53.180;5.800;2022-08-21T11:14:51;22.00;99.90
55091;DHT22;40985;53.180;5.800;2022-08-21T11:17:24;22.10;99.90
55091;DHT22;40985;53.180;5.800;2022-08-21T11:20:17;22.20;99.90
55091;DHT22;40985;53.180;5.800;2022-08-21T11:22:51;22.40;99.90
55091;DHT22;40985;53.180;5.800;2022-08-21T11:25:26;22.40;99.90
55091;DHT22;40985;53.180;5.800;2022-08-21T11:28:20;22.50;99.90
55091;DHT22;40985;53.180;5.800;2022-08-21T11:36:34;22.60;99.90
55091;DHT22;40985;53.180;5.800;2022-08-21T11:39:22;22.60;99.90
55091;DHT22;40985;53.180;5.800;2022-08-21T12:00:49;22.80;99.90
55091;DHT22;40985;53.180;5.800;2022-08-21T12:03:22;22.70;99.90
55091;DHT22;40985;53.180;5.800;2022-08-21T12:05:58;22.50;99.90
55091;DHT22;40985;53.180;5.800;2022-08-21T12:16:31;22.50;99.90
55091;DHT22;40985;53.180;5.800;2022-08-21T12:19:12;22.60;99.90
55091;DHT22;40985;53.180;5.800;2022-08-21T12:24:49;22.90;99.90
55091;DHT22;40985;53.180;5.800;2022-08-21T12:27:46;22.50;99.90
55091;DHT22;40985;53.180;5.800;2022-08-21T12:30:43;22.80;99.90
55091;DHT22;40985;53.180;5.800;2022-08-21T12:33:35;23.00;99.90
55091;DHT22;40985;53.180;5.800;2022-08-21T12:36:10;23.20;99.90
55091;DHT22;40985;53.180;5.800;2022-08-21T12:38:48;23.10;99.90
55091;DHT22;40985;53.180;5.800;2022-08-21T12:41:21;23.20;99.90
55091;DHT22;40985;53.180;5.800;2022-08-21T12:44:01;23.20;99.90
55091;DHT22;40985;53.180;5.800;2022-08-21T12:46:39;23.00;99.90
55091;DHT22;40985;53.180;5.800;2022-08-21T12:49:19;23.10;99.90
55091;DHT22;40985;53.180;5.800;2022-08-21T12:54:31;22.90;99.90
55091;DHT22;40985;53.180;5.800;2022-08-21T12:57:00;22.80;99.90
55091;DHT22;40985;53.180;5.800;2022-08-21T12:59:26;22.30;99.90
55091;DHT22;40985;53.180;5.800;2022-08-21T13:01:53;22.40;99.90
55091;DHT22;40985;53.180;5.800;2022-08-21T13:04:35;22.60;99.90
55091;DHT22;40985;53.180;5.800;2022-08-21T13:07:06;22.70;99.90
55091;DHT22;40985;53.180;5.800;2022-08-21T13:09:32;22.70;99.90
55091;DHT22;40985;53.180;5.800;2022-08-21T13:11:58;22.80;99.90
55091;DHT22;40985;53.180;5.800;2022-08-21T13:14:28;22.90;99.90
55091;DHT22;40985;53.180;5.800;2022-08-21T13:16:59;22.70;99.90
55091;DHT22;40985;53.180;5.800;2022-08-21T13:19:25;22.70;99.90
55091;DHT22;40985;53.180;5.800;2022-08-21T13:21:52;22.70;99.90
55091;DHT22;40985;53.180;5.800;2022-08-21T13:24:24;23.00;99.90
55091;DHT22;40985;53.180;5.800;2022-08-21T13:26:51;22.60;99.90
55091;DHT22;40985;53.180;5.800;2022-08-21T13:29:20;22.30;99.90
55091;DHT22;40985;53.180;5.800;2022-08-21T13:31:51;22.60;99.90
55091;DHT22;40985;53.180;5.800;2022-08-21T13:34:23;22.30;99.90
55091;DHT22;40985;53.180;5.800;2022-08-21T13:36:54;22.40;99.90
55091;DHT22;40985;53.180;5.800;2022-08-21T13:39:21;22.40;99.90
55091;DHT22;40985;53.180;5.800;2022-08-21T13:41:50;22.40;99.90
55091;DHT22;40985;53.180;5.800;2022-08-21T13:44:45;22.20;99.90
55091;DHT22;40985;53.180;5.800;2022-08-21T13:47:13;22.40;99.90
55091;DHT22;40985;53.180;5.800;2022-08-21T13:49:43;22.40;99.90
55091;DHT22;40985;53.180;5.800;2022-08-21T13:52:25;22.50;99.90
55091;DHT22;40985;53.180;5.800;2022-08-21T13:55:00;22.50;99.90
55091;DHT22;40985;53.180;5.800;2022-08-21T13:57:29;22.50;99.90
55091;DHT22;40985;53.180;5.800;2022-08-21T14:00:18;22.70;99.90
55091;DHT22;40985;53.180;5.800;2022-08-21T14:02:50;22.80;99.90
55091;DHT22;40985;53.180;5.800;2022-08-21T14:05:25;22.50;99.90
55091;DHT22;40985;53.180;5.800;2022-08-21T14:08:04;22.70;99.90
55091;DHT22;40985;53.180;5.800;2022-08-21T14:10:30;22.80;99.90
55091;DHT22;40985;53.180;5.800;2022-08-21T14:13:02;22.90;99.90
55091;DHT22;40985;53.180;5.800;2022-08-21T14:15:32;22.40;99.90
55091;DHT22;40985;53.180;5.800;2022-08-21T14:18:18;22.40;99.90
55091;DHT22;40985;53.180;5.800;2022-08-21T14:20:45;22.70;99.90
55091;DHT22;40985;53.180;5.800;2022-08-21T14:23:11;22.50;99.90
55091;DHT22;40985;53.180;5.800;2022-08-21T14:25:45;22.30;99.90
55091;DHT22;40985;53.180;5.800;2022-08-21T14:28:24;22.30;99.90
55091;DHT22;40985;53.180;5.800;2022-08-21T14:30:52;22.40;99.90
55091;DHT22;40985;53.180;5.800;2022-08-21T14:33:26;22.20;99.90
55091;DHT22;40985;53.180;5.800;2022-08-21T14:35:52;22.10;99.90
55091;DHT22;40985;53.180;5.800;2022-08-21T14:38:21;21.80;99.90
55091;DHT22;40985;53.180;5.800;2022-08-21T14:40:50;21.90;99.90
55091;DHT22;40985;53.180;5.800;2022-08-21T14:43:17;22.00;99.90
55091;DHT22;40985;53.180;5.800;2022-08-21T14:45:45;22.20;99.90
55091;DHT22;40985;53.180;5.800;2022-08-21T14:48:11;22.20;99.90
55091;DHT22;40985;53.180;5.800;2022-08-21T14:50:37;22.10;99.90
55091;DHT22;40985;53.180;5.800;2022-08-21T14:53:03;21.90;99.90
55091;DHT22;40985;53.180;5.800;2022-08-21T14:55:31;21.90;99.90
55091;DHT22;40985;53.180;5.800;2022-08-21T14:58:16;21.70;99.90
55091;DHT22;40985;53.180;5.800;2022-08-21T15:00:42;21.90;99.90
55091;DHT22;40985;53.180;5.800;2022-08-21T15:03:08;21.90;99.90
55091;DHT22;40985;53.180;5.800;2022-08-21T15:05:33;21.80;99.90
55091;DHT22;40985;53.180;5.800;2022-08-21T15:07:59;22.00;99.90
55091;DHT22;40985;53.180;5.800;2022-08-21T15:10:25;21.80;99.90
55091;DHT22;40985;53.180;5.800;2022-08-21T15:12:51;22.00;99.90
55091;DHT22;40985;53.180;5.800;2022-08-21T15:15:17;21.80;99.90
55091;DHT22;40985;53.180;5.800;2022-08-21T15:17:42;21.90;99.90
55091;DHT22;40985;53.180;5.800;2022-08-21T15:20:09;21.70;99.90
55091;DHT22;40985;53.180;5.800;2022-08-21T15:22:35;21.70;99.90
55091;DHT22;40985;53.180;5.800;2022-08-21T15:25:01;21.70;99.90
55091;DHT22;40985;53.180;5.800;2022-08-21T15:27:27;21.30;99.90
55091;DHT22;40985;53.180;5.800;2022-08-21T15:29:53;21.20;99.90
55091;DHT22;40985;53.180;5.800;2022-08-21T15:32:27;21.20;99.90
55091;DHT22;40985;53.180;5.800;2022-08-21T15:34:55;21.20;99.90
55091;DHT22;40985;53.180;5.800;2022-08-21T15:37:22;21.10;99.90
55091;DHT22;40985;53.180;5.800;2022-08-21T15:39:49;21.20;99.90
55091;DHT22;40985;53.180;5.800;2022-08-21T15:42:15;21.30;99.90
55091;DHT22;40985;53.180;5.800;2022-08-21T15:44:42;21.20;99.90
55091;DHT22;40985;53.180;5.800;2022-08-21T15:47:21;21.30;99.90
55091;DHT22;40985;53.180;5.800;2022-08-21T15:49:47;21.10;99.90
55091;DHT22;40985;53.180;5.800;2022-08-21T15:52:15;21.10;99.90
55091;DHT22;40985;53.180;5.800;2022-08-21T15:54:41;21.10;99.90
55091;DHT22;40985;53.180;5.800;2022-08-21T15:57:10;21.20;99.90
55091;DHT22;40985;53.180;5.800;2022-08-21T15:59:47;21.20;99.90
55091;DHT22;40985;53.180;5.800;2022-08-21T16:02:17;21.00;99.90
55091;DHT22;40985;53.180;5.800;2022-08-21T16:04:44;21.00;99.90
55091;DHT22;40985;53.180;5.800;2022-08-21T16:07:10;20.90;99.90
55091;DHT22;40985;53.180;5.800;2022-08-21T16:09:36;20.90;99.90
55091;DHT22;40985;53.180;5.800;2022-08-21T16:12:04;20.90;99.90
55091;DHT22;40985;53.180;5.800;2022-08-21T16:14:31;20.80;99.90
55091;DHT22;40985;53.180;5.800;2022-08-21T16:16:58;20.80;99.90
55091;DHT22;40985;53.180;5.800;2022-08-21T16:19:27;20.70;99.90
55091;DHT22;40985;53.180;5.800;2022-08-21T16:21:53;20.70;99.90
55091;DHT22;40985;53.180;5.800;2022-08-21T16:24:19;20.50;99.90
55091;DHT22;40985;53.180;5.800;2022-08-21T16:26:45;20.40;99.90
55091;DHT22;40985;53.180;5.800;2022-08-21T16:29:11;20.50;99.90
55091;DHT22;40985;53.180;5.800;2022-08-21T16:31:37;20.50;99.90
55091;DHT22;40985;53.180;5.800;2022-08-21T16:34:02;20.60;99.90
55091;DHT22;40985;53.180;5.800;2022-08-21T16:36:29;20.60;99.90
55091;DHT22;40985;53.180;5.800;2022-08-21T16:38:56;20.70;99.90
55091;DHT22;40985;53.180;5.800;2022-08-21T16:41:24;20.60;99.90
55091;DHT22;40985;53.180;5.800;2022-08-21T16:43:51;20.50;99.90
55091;DHT22;40985;53.180;5.800;2022-08-21T16:46:18;20.60;99.90
55091;DHT22;40985;53.180;5.800;2022-08-21T16:48:45;20.50;99.90
55091;DHT22;40985;53.180;5.800;2022-08-21T16:51:15;20.40;99.90
55091;DHT22;40985;53.180;5.800;2022-08-21T16:53:41;20.40;99.90
55091;DHT22;40985;53.180;5.800;2022-08-21T16:56:09;20.40;99.90
55091;DHT22;40985;53.180;5.800;2022-08-21T16:58:40;20.50;99.90
55091;DHT22;40985;53.180;5.800;2022-08-21T17:01:09;20.40;99.90
55091;DHT22;40985;53.180;5.800;2022-08-21T17:03:39;20.30;99.90
55091;DHT22;40985;53.180;5.800;2022-08-21T17:06:06;20.30;99.90
55091;DHT22;40985;53.180;5.800;2022-08-21T17:08:32;20.30;99.90
55091;DHT22;40985;53.180;5.800;2022-08-21T17:10:58;20.20;99.90